Time;durP1;ratioP1;P1;durP2;ratioP2;P2;SDS_P1;SDS_P2;PMS_P1;PMS_P2;Temp;Humidity;BMP_temperature;BMP_pressure;BME280_temperature;BME280_humidity;BME280_pressure;Samples;Min_cycle;Max_cycle;Signal;HPM_P1;HPM_P2
2021/12/07 00:00:22;;;;;;;;;;;;;;;;;;2081245;28;19967;-79
2021/12/07 00:01:23;;;;;;;;;;;;;;;;;;2081201;28;19905;-78
2021/12/07 00:02:23;;;;;;;;;;;;;;;;;;2081243;28;20287;-77
2021/12/07 00:03:23;;;;;;;;;;;;;;;;;;2081124;28;19982;-80
2021/12/07 00:04:24;;;;;;;;;;;;;;;;;;2081310;28;20431;-79
2021/12/07 00:05:24;;;;;;;;;;;;;;;;;;2081111;28;19916;-79
2021/12/07 00:06:25;;;;;;;;;;;;;;;;;;2064558;28;19931;-80
2021/12/07 00:07:25;;;;;;;;;;;;;;;;;;2064602;28;19914;-80
2021/12/07 00:08:27;;;;;;;;;;;;;;;;;;2081714;28;19968;-80
2021/12/07 00:09:28;;;;;;;;;;;;;;;;;;2082666;28;19909;-77
2021/12/07 00:10:28;;;;;;;;;;;;;;;;;;2082730;28;19909;-80
2021/12/07 00:11:29;;;;;;;;;;;;;;;;;;2082605;28;19909;-80
2021/12/07 00:12:34;;;;;;;;;;;;;;;;;;2074055;28;19909;-80
2021/12/07 00:13:38;;;;;;;;;;;;;;;;;;2066487;28;20383;-78
2021/12/07 00:14:41;;;;;;;;;;;;;;;;;;2074484;28;19920;-80
2021/12/07 00:15:42;;;;;;;;;;;;;;;;;;2073877;28;19909;-80
2021/12/07 00:16:45;;;;;;;;;;;;;;;;;;2074092;28;19909;-80
2021/12/07 00:17:45;;;;;;;;;;;;;;;;;;2082652;28;19921;-80
2021/12/07 00:18:47;;;;;;;;;;;;;;;;;;2082645;28;19917;-80
2021/12/07 00:19:47;;;;;;;;;;;;;;;;;;2082587;28;19909;-79
2021/12/07 00:20:47;;;;;;;;;;;;;;;;;;2082640;28;19909;-79
2021/12/07 00:21:53;;;;;;;;;;;;;;;;;;2082566;28;20150;-79
2021/12/07 00:22:57;;;;;;;;;;;;;;;;;;2082363;28;20388;-79
2021/12/07 00:23:58;;;;;;;;;;;;;;;;;;2082582;28;19917;-78
2021/12/07 00:24:58;;;;;;;;;;;;;;;;;;2074020;28;19949;-79
2021/12/07 00:25:58;;;;;;;;;;;;;;;;;;2073975;28;19909;-80
2021/12/07 00:26:58;;;;;;;;;;;;;;;;;;2082278;28;19963;-78
2021/12/07 00:27:59;;;;;;;;;;;;;;;;;;2082484;28;19978;-79
2021/12/07 00:29:02;;;;;;;;;;;;;;;;;;2082435;28;19917;-78
2021/12/07 00:30:03;;;;;;;;;;;;;;;;;;2073801;28;20423;-78
2021/12/07 00:31:15;;;;;;;;;;;;;;;;;;2074158;28;20332;-79
2021/12/07 00:33:36;;;;;;;;;;;;;;;;;;2082706;28;19923;-80
2021/12/07 00:35:38;;;;;;;;;;;;;;;;;;2081744;28;20217;-80
2021/12/07 00:36:44;;;;;;;;;;;;;;;;;;2082171;28;20271;-80
2021/12/07 00:37:46;;;;;;;;;;;;;;;;;;2082533;28;19905;-80
2021/12/07 00:38:47;;;;;;;;;;;;;;;;;;2082424;28;19978;-80
2021/12/07 00:39:47;;;;;;;;;;;;;;;;;;2073763;28;20379;-80
2021/12/07 00:40:48;;;;;;;;;;;;;;;;;;2065554;28;19910;-80
2021/12/07 00:41:49;;;;;;;;;;;;;;;;;;2073812;28;19909;-80
2021/12/07 00:42:49;;;;;;;;;;;;;;;;;;2073637;28;19909;-79
2021/12/07 00:43:50;;;;;;;;;;;;;;;;;;2065649;28;19984;-79
2021/12/07 00:44:51;;;;;;;;;;;;;;;;;;2073806;28;19909;-79
2021/12/07 00:45:54;;;;;;;;;;;;;;;;;;2082304;28;19978;-79
2021/12/07 00:46:54;;;;;;;;;;;;;;;;;;2081846;28;20354;-79
2021/12/07 00:47:55;;;;;;;;;;;;;;;;;;2082007;28;20051;-79
2021/12/07 00:48:55;;;;;;;;;;;;;;;;;;2082401;28;19920;-80
2021/12/07 00:49:55;;;;;;;;;;;;;;;;;;2082404;28;20290;-79
2021/12/07 00:50:57;;;;;;;;;;;;;;;;;;2082385;28;19912;-79
2021/12/07 00:51:57;;;;;;;;;;;;;;;;;;2082387;28;19909;-79
2021/12/07 00:52:58;;;;;;;;;;;;;;;;;;2082332;28;20249;-79
2021/12/07 00:53:58;;;;;;;;;;;;;;;;;;2073607;28;19909;-79
2021/12/07 00:54:59;;;;;;;;;;;;;;;;;;2073823;28;19987;-79
2021/12/07 00:56:01;;;;;;;;;;;;;;;;;;2082241;28;19908;-79
2021/12/07 00:57:02;;;;;;;;;;;;;;;;;;2082446;28;19999;-79
2021/12/07 00:58:12;;;;;;;;;;;;;;;;;;2082298;28;19909;-79
2021/12/07 00:59:12;;;;;;;;;;;;;;;;;;2082322;28;19909;-79
2021/12/07 01:00:14;;;;;;;;;;;;;;;;;;2082431;28;19909;-79
2021/12/07 01:01:19;;;;;;;;;;;;;;;;;;2082379;28;20351;-79
2021/12/07 01:02:19;;;;;;;;;;;;;;;;;;2082353;28;20019;-79
2021/12/07 01:03:20;;;;;;;;;;;;;;;;;;2082195;28;20330;-80
2021/12/07 01:04:21;;;;;;;;;;;;;;;;;;2073567;28;19956;-79
2021/12/07 01:05:27;;;;;;;;;;;;;;;;;;2073655;28;19910;-79
2021/12/07 01:06:32;;;;;;;;;;;;;;;;;;2073531;28;20375;-79
2021/12/07 01:08:10;;;;;;;;;;;;;;;;;;2066051;28;19909;-79
2021/12/07 01:09:18;;;;;;;;;;;;;;;;;;2075869;28;19948;-79
2021/12/07 01:24:49;;;;;;;;;;;;;;;;;;2082159;28;20343;-79
2021/12/07 01:25:52;;;;;;;;;;;;;;;;;;2082077;28;19909;-78
2021/12/07 01:26:53;;;;;;;;;;;;;;;;;;2082031;28;19909;-79
2021/12/07 01:27:56;;;;;;;;;;;;;;;;;;2082222;28;20334;-80
2021/12/07 01:28:57;;;;;;;;;;;;;;;;;;2073330;28;19925;-79
2021/12/07 01:30:10;;;;;;;;;;;;;;;;;;2065268;28;19920;-79
2021/12/07 01:31:19;;;;;;;;;;;;;;;;;;2075300;28;20352;-79
2021/12/07 01:35:23;;;;;;;;;;;;;;;;;;2082192;28;19904;-79
2021/12/07 01:43:54;;;;;;;;;;;;;;;;;;2081911;28;19913;-79
2021/12/07 01:51:05;;;;;;;;;;;;;;;;;;2081990;28;19909;-80
2021/12/07 01:52:33;;;;;;;;;;;;;;;;;;2081318;28;20330;-80
2021/12/07 02:00:27;;;;;;;;;;;;;;;;;;2064828;28;19936;-80
2021/12/07 02:01:27;;;;;;;;;;;;;;;;;;2071884;28;19920;-79
2021/12/07 02:02:28;;;;;;;;;;;;;;;;;;2073036;28;19949;-79
2021/12/07 02:03:29;;;;;;;;;;;;;;;;;;2065074;28;20332;-79
2021/12/07 02:04:29;;;;;;;;;;;;;;;;;;2073215;28;19917;-80
2021/12/07 02:05:29;;;;;;;;;;;;;;;;;;2081713;28;19908;-80
2021/12/07 02:06:30;;;;;;;;;;;;;;;;;;2081799;28;19979;-80
2021/12/07 02:07:32;;;;;;;;;;;;;;;;;;2081782;28;19909;-79
2021/12/07 02:08:33;;;;;;;;;;;;;;;;;;2081749;28;20177;-80
2021/12/07 02:09:35;;;;;;;;;;;;;;;;;;2082001;28;19909;-79
2021/12/07 02:10:36;;;;;;;;;;;;;;;;;;2081766;28;19909;-79
2021/12/07 02:11:36;;;;;;;;;;;;;;;;;;2081837;28;19959;-79
2021/12/07 02:12:43;;;;;;;;;;;;;;;;;;2081774;28;19919;-79
2021/12/07 02:14:44;;;;;;;;;;;;;;;;;;2081505;28;19923;-79
2021/12/07 02:15:45;;;;;;;;;;;;;;;;;;2081104;28;20339;-79
2021/12/07 02:16:50;;;;;;;;;;;;;;;;;;2073137;28;20374;-79
2021/12/07 02:17:52;;;;;;;;;;;;;;;;;;2072984;28;19909;-79
2021/12/07 02:18:52;;;;;;;;;;;;;;;;;;2073135;28;19909;-80
2021/12/07 02:19:52;;;;;;;;;;;;;;;;;;2081694;28;20007;-79
2021/12/07 02:20:53;;;;;;;;;;;;;;;;;;2081763;28;20007;-79
2021/12/07 02:21:54;;;;;;;;;;;;;;;;;;2081672;28;19919;-79
2021/12/07 02:22:54;;;;;;;;;;;;;;;;;;2081521;28;19920;-79
2021/12/07 02:23:54;;;;;;;;;;;;;;;;;;2081694;28;19952;-79
2021/12/07 02:24:55;;;;;;;;;;;;;;;;;;2081669;28;20228;-79
2021/12/07 02:25:55;;;;;;;;;;;;;;;;;;2081576;28;19962;-79
2021/12/07 02:26:56;;;;;;;;;;;;;;;;;;2081664;28;19928;-79
2021/12/07 02:27:56;;;;;;;;;;;;;;;;;;2081649;28;19920;-79
2021/12/07 02:28:57;;;;;;;;;;;;;;;;;;2081652;28;19909;-78
2021/12/07 02:29:57;;;;;;;;;;;;;;;;;;2072830;28;20499;-78
2021/12/07 02:30:57;;;;;;;;;;;;;;;;;;2072572;28;19980;-79
2021/12/07 02:31:59;;;;;;;;;;;;;;;;;;2081318;28;20359;-79
2021/12/07 02:32:59;;;;;;;;;;;;;;;;;;2081610;28;19909;-79
2021/12/07 02:34:00;;;;;;;;;;;;;;;;;;2081504;28;19913;-79
2021/12/07 02:35:00;;;;;;;;;;;;;;;;;;2081630;28;20416;-78
2021/12/07 02:36:01;;;;;;;;;;;;;;;;;;2081498;28;20384;-78
2021/12/07 02:37:01;;;;;;;;;;;;;;;;;;2072908;28;19963;-78
2021/12/07 02:38:02;;;;;;;;;;;;;;;;;;2072958;28;19968;-78
2021/12/07 02:39:07;;;;;;;;;;;;;;;;;;2072967;28;19992;-79
2021/12/07 02:40:08;;;;;;;;;;;;;;;;;;2073500;28;19917;-80
2021/12/07 02:41:08;;;;;;;;;;;;;;;;;;2081512;28;19909;-80
2021/12/07 02:42:09;;;;;;;;;;;;;;;;;;2081509;28;19909;-78
2021/12/07 02:43:09;;;;;;;;;;;;;;;;;;2081140;28;19996;-80
2021/12/07 02:44:10;;;;;;;;;;;;;;;;;;2081068;28;19982;-80
2021/12/07 02:45:10;;;;;;;;;;;;;;;;;;2081568;28;19982;-79
2021/12/07 02:46:11;;;;;;;;;;;;;;;;;;2081418;28;19943;-77
2021/12/07 02:47:11;;;;;;;;;;;;;;;;;;2081722;28;19920;-77
2021/12/07 02:48:12;;;;;;;;;;;;;;;;;;2081532;28;20423;-78
2021/12/07 02:49:12;;;;;;;;;;;;;;;;;;2081553;28;20270;-78
2021/12/07 02:50:13;;;;;;;;;;;;;;;;;;2072930;28;19920;-78
2021/12/07 02:51:13;;;;;;;;;;;;;;;;;;2072775;28;19975;-77
2021/12/07 02:52:14;;;;;;;;;;;;;;;;;;2072968;28;19921;-78
2021/12/07 02:53:14;;;;;;;;;;;;;;;;;;2072884;28;20350;-78
2021/12/07 02:54:15;;;;;;;;;;;;;;;;;;2072887;28;20403;-78
2021/12/07 02:55:15;;;;;;;;;;;;;;;;;;2064738;28;20383;-78
2021/12/07 02:56:15;;;;;;;;;;;;;;;;;;2064548;28;20214;-78
2021/12/07 02:57:17;;;;;;;;;;;;;;;;;;2072843;28;19940;-78
2021/12/07 02:58:18;;;;;;;;;;;;;;;;;;2073009;28;20398;-78
2021/12/07 02:59:19;;;;;;;;;;;;;;;;;;2081538;28;19916;-77
2021/12/07 03:00:25;;;;;;;;;;;;;;;;;;2081566;28;19951;-80
2021/12/07 03:01:30;;;;;;;;;;;;;;;;;;2081601;28;19908;-77
2021/12/07 03:02:35;;;;;;;;;;;;;;;;;;2072946;28;19971;-78
2021/12/07 03:03:40;;;;;;;;;;;;;;;;;;2073433;28;20106;-80
2021/12/07 03:04:53;;;;;;;;;;;;;;;;;;2072972;28;19909;-78
2021/12/07 03:06:11;;;;;;;;;;;;;;;;;;2066312;28;19909;-80
2021/12/07 03:07:41;;;;;;;;;;;;;;;;;;2066914;28;20300;-79
2021/12/07 03:25:48;;;;;;;;;;;;;;;;;;2081507;28;20340;-79
2021/12/07 03:26:51;;;;;;;;;;;;;;;;;;2081710;28;20340;-79
2021/12/07 03:27:52;;;;;;;;;;;;;;;;;;2080856;28;20130;-80
2021/12/07 03:28:54;;;;;;;;;;;;;;;;;;2081046;28;19996;-79
2021/12/07 03:29:54;;;;;;;;;;;;;;;;;;2072802;28;19909;-80
2021/12/07 03:31:30;;;;;;;;;;;;;;;;;;2064608;28;19916;-79
2021/12/07 03:36:03;;;;;;;;;;;;;;;;;;2039885;29;19977;-80
2021/12/07 03:37:35;;;;;;;;;;;;;;;;;;2048377;28;19914;-80
2021/12/07 03:38:36;;;;;;;;;;;;;;;;;;2073076;28;19979;-79
2021/12/07 03:39:36;;;;;;;;;;;;;;;;;;2073259;28;20358;-80
2021/12/07 03:40:37;;;;;;;;;;;;;;;;;;2073167;28;19910;-80
2021/12/07 03:41:38;;;;;;;;;;;;;;;;;;2073208;28;20338;-79
2021/12/07 03:42:38;;;;;;;;;;;;;;;;;;2074039;28;19913;-79
2021/12/07 03:43:39;;;;;;;;;;;;;;;;;;2074751;28;19925;-80
2021/12/07 03:44:39;;;;;;;;;;;;;;;;;;2074814;28;19920;-79
2021/12/07 03:45:43;;;;;;;;;;;;;;;;;;2074729;28;19909;-80
2021/12/07 03:46:43;;;;;;;;;;;;;;;;;;2074792;28;19917;-80
2021/12/07 03:47:43;;;;;;;;;;;;;;;;;;2074748;28;20003;-80
2021/12/07 03:48:44;;;;;;;;;;;;;;;;;;2074737;28;19909;-80
2021/12/07 03:49:44;;;;;;;;;;;;;;;;;;2074687;28;19909;-80
2021/12/07 03:50:47;;;;;;;;;;;;;;;;;;2074785;28;19963;-79
2021/12/07 03:51:47;;;;;;;;;;;;;;;;;;2074706;28;19932;-80
2021/12/07 03:52:49;;;;;;;;;;;;;;;;;;2074812;28;20256;-79
2021/12/07 03:53:49;;;;;;;;;;;;;;;;;;2074674;28;19909;-80
2021/12/07 03:54:49;;;;;;;;;;;;;;;;;;2074173;28;20000;-79
2021/12/07 03:55:50;;;;;;;;;;;;;;;;;;2074113;28;19959;-79
2021/12/07 03:56:50;;;;;;;;;;;;;;;;;;2074666;28;19909;-79
2021/12/07 03:57:50;;;;;;;;;;;;;;;;;;2074710;28;19909;-80
2021/12/07 03:58:51;;;;;;;;;;;;;;;;;;2074628;28;19909;-80
2021/12/07 03:59:51;;;;;;;;;;;;;;;;;;2082259;28;19909;-79
2021/12/07 04:00:51;;;;;;;;;;;;;;;;;;2074165;28;20347;-80
2021/12/07 04:01:52;;;;;;;;;;;;;;;;;;2074152;28;19910;-79
2021/12/07 04:02:53;;;;;;;;;;;;;;;;;;2074555;28;19989;-79
2021/12/07 04:03:54;;;;;;;;;;;;;;;;;;2074046;28;19909;-80
2021/12/07 04:05:00;;;;;;;;;;;;;;;;;;2074198;28;19909;-79
2021/12/07 04:06:04;;;;;;;;;;;;;;;;;;2074466;28;20336;-80
2021/12/07 04:07:05;;;;;;;;;;;;;;;;;;2074717;28;19921;-79
2021/12/07 04:08:05;;;;;;;;;;;;;;;;;;2074595;28;20418;-79
2021/12/07 04:09:05;;;;;;;;;;;;;;;;;;2074558;28;20145;-80
2021/12/07 04:10:06;;;;;;;;;;;;;;;;;;2074520;28;19914;-79
2021/12/07 04:11:07;;;;;;;;;;;;;;;;;;2074678;28;19975;-80
2021/12/07 04:12:08;;;;;;;;;;;;;;;;;;2074408;28;19909;-80
2021/12/07 04:13:08;;;;;;;;;;;;;;;;;;2074596;28;19909;-79
2021/12/07 04:14:09;;;;;;;;;;;;;;;;;;2074511;28;19964;-79
2021/12/07 04:15:10;;;;;;;;;;;;;;;;;;2074695;28;20257;-79
2021/12/07 04:16:12;;;;;;;;;;;;;;;;;;2074367;28;19917;-79
2021/12/07 04:17:13;;;;;;;;;;;;;;;;;;2074596;28;19913;-79
2021/12/07 04:18:13;;;;;;;;;;;;;;;;;;2074382;28;19917;-79
2021/12/07 04:19:13;;;;;;;;;;;;;;;;;;2074502;28;19996;-80
2021/12/07 04:20:15;;;;;;;;;;;;;;;;;;2082180;28;20408;-80
2021/12/07 04:21:16;;;;;;;;;;;;;;;;;;2082050;28;19919;-80
2021/12/07 04:22:16;;;;;;;;;;;;;;;;;;2074028;28;20255;-80
2021/12/07 04:23:17;;;;;;;;;;;;;;;;;;2073979;28;20368;-80
2021/12/07 04:24:17;;;;;;;;;;;;;;;;;;2074465;28;19992;-80
2021/12/07 04:25:17;;;;;;;;;;;;;;;;;;2074436;28;19964;-79
2021/12/07 04:26:18;;;;;;;;;;;;;;;;;;2074455;28;20347;-80
2021/12/07 04:27:18;;;;;;;;;;;;;;;;;;2074415;28;20260;-79
2021/12/07 04:28:18;;;;;;;;;;;;;;;;;;2074383;28;19909;-82
2021/12/07 04:29:18;;;;;;;;;;;;;;;;;;2074403;28;19917;-80
2021/12/07 04:30:21;;;;;;;;;;;;;;;;;;2074366;28;19936;-80
2021/12/07 04:31:21;;;;;;;;;;;;;;;;;;2073929;28;19909;-80
2021/12/07 04:32:21;;;;;;;;;;;;;;;;;;2065809;28;20288;-79
2021/12/07 04:33:22;;;;;;;;;;;;;;;;;;2073905;28;19921;-80
2021/12/07 04:34:22;;;;;;;;;;;;;;;;;;2079557;28;20351;-79
2021/12/07 04:35:22;;;;;;;;;;;;;;;;;;2065708;28;19995;-79
2021/12/07 04:36:23;;;;;;;;;;;;;;;;;;2065930;28;20320;-79
2021/12/07 04:37:23;;;;;;;;;;;;;;;;;;2082382;28;20391;-79
2021/12/07 04:38:23;;;;;;;;;;;;;;;;;;2082508;28;20306;-79
2021/12/07 04:39:26;;;;;;;;;;;;;;;;;;2082440;28;19909;-78
2021/12/07 04:40:28;;;;;;;;;;;;;;;;;;2082507;28;19912;-79
2021/12/07 04:41:32;;;;;;;;;;;;;;;;;;2082432;28;19916;-80
2021/12/07 04:42:33;;;;;;;;;;;;;;;;;;2081978;28;19909;-79
2021/12/07 04:43:33;;;;;;;;;;;;;;;;;;2073687;28;20295;-78
2021/12/07 04:44:40;;;;;;;;;;;;;;;;;;2073881;28;19909;-79
2021/12/07 04:46:53;;;;;;;;;;;;;;;;;;2074198;28;19915;-81
2021/12/07 04:50:22;;;;;;;;;;;;;;;;;;2082328;28;19908;-78
2021/12/07 04:57:59;;;;;;;;;;;;;;;;;;2082542;28;19909;-79
2021/12/07 04:59:00;;;;;;;;;;;;;;;;;;2082448;28;19909;-80
2021/12/07 05:00:03;;;;;;;;;;;;;;;;;;2082149;28;19920;-80
2021/12/07 05:01:09;;;;;;;;;;;;;;;;;;2073676;28;19913;-80
2021/12/07 05:02:10;;;;;;;;;;;;;;;;;;2074401;28;20368;-80
2021/12/07 05:03:13;;;;;;;;;;;;;;;;;;2082311;28;19909;-78
2021/12/07 05:04:18;;;;;;;;;;;;;;;;;;2082280;28;19909;-78
2021/12/07 05:05:23;;;;;;;;;;;;;;;;;;2082392;28;19905;-80
2021/12/07 05:06:28;;;;;;;;;;;;;;;;;;2082106;28;19909;-80
2021/12/07 05:07:35;;;;;;;;;;;;;;;;;;2073583;28;20280;-80
2021/12/07 05:12:43;;;;;;;;;;;;;;;;;;2082350;28;19909;-80
2021/12/07 05:14:26;;;;;;;;;;;;;;;;;;2082220;28;19909;-80
2021/12/07 05:15:44;;;;;;;;;;;;;;;;;;2082094;28;19979;-80
2021/12/07 05:18:37;;;;;;;;;;;;;;;;;;2068939;28;19920;-80
2021/12/07 05:23:58;;;;;;;;;;;;;;;;;;2082121;28;19913;-80
2021/12/07 05:37:58;;;;;;;;;;;;;;;;;;2082075;28;20003;-80
2021/12/07 05:38:59;;;;;;;;;;;;;;;;;;2082037;28;19905;-80
2021/12/07 05:39:59;;;;;;;;;;;;;;;;;;2081502;28;19908;-80
2021/12/07 05:41:00;;;;;;;;;;;;;;;;;;2081458;28;19913;-80
2021/12/07 05:42:01;;;;;;;;;;;;;;;;;;2081842;28;19920;-80
2021/12/07 05:43:02;;;;;;;;;;;;;;;;;;2081944;28;19999;-80
2021/12/07 05:44:03;;;;;;;;;;;;;;;;;;2081817;28;19909;-80
2021/12/07 05:45:04;;;;;;;;;;;;;;;;;;2082015;28;20073;-81
2021/12/07 05:46:05;;;;;;;;;;;;;;;;;;2081875;28;19909;-80
2021/12/07 05:47:05;;;;;;;;;;;;;;;;;;2081570;28;20376;-81
2021/12/07 05:48:07;;;;;;;;;;;;;;;;;;2081487;28;19909;-80
2021/12/07 05:49:07;;;;;;;;;;;;;;;;;;2081810;28;20007;-80
2021/12/07 05:50:08;;;;;;;;;;;;;;;;;;2081873;28;20488;-80
2021/12/07 05:51:09;;;;;;;;;;;;;;;;;;2081956;28;19909;-80
2021/12/07 05:52:09;;;;;;;;;;;;;;;;;;2081989;28;19920;-81
2021/12/07 05:53:10;;;;;;;;;;;;;;;;;;2081908;28;20430;-80
2021/12/07 05:54:11;;;;;;;;;;;;;;;;;;2081995;28;19977;-80
2021/12/07 05:55:11;;;;;;;;;;;;;;;;;;2081656;28;20383;-80
2021/12/07 05:56:11;;;;;;;;;;;;;;;;;;2073227;28;19923;-80
2021/12/07 05:57:12;;;;;;;;;;;;;;;;;;2073302;28;20260;-80
2021/12/07 05:58:12;;;;;;;;;;;;;;;;;;2073201;28;20364;-80
2021/12/07 05:59:15;;;;;;;;;;;;;;;;;;2065064;28;19952;-80
2021/12/07 06:00:23;;;;;;;;;;;;;;;;;;2073610;28;19968;-80
2021/12/07 06:01:24;;;;;;;;;;;;;;;;;;2081909;28;19952;-80
2021/12/07 06:02:24;;;;;;;;;;;;;;;;;;2081960;28;19916;-81
2021/12/07 06:03:25;;;;;;;;;;;;;;;;;;2081776;28;20382;-80
2021/12/07 06:04:28;;;;;;;;;;;;;;;;;;2073162;28;19909;-80
2021/12/07 06:05:28;;;;;;;;;;;;;;;;;;2073081;28;20386;-80
2021/12/07 06:06:29;;;;;;;;;;;;;;;;;;2072585;28;19913;-80
2021/12/07 06:07:29;;;;;;;;;;;;;;;;;;2073205;28;19941;-79
2021/12/07 06:08:30;;;;;;;;;;;;;;;;;;2073059;28;20048;-80
2021/12/07 06:09:31;;;;;;;;;;;;;;;;;;2064956;28;19916;-80
2021/12/07 06:10:32;;;;;;;;;;;;;;;;;;2065126;28;20296;-80
2021/12/07 06:11:32;;;;;;;;;;;;;;;;;;2064887;28;19921;-81
2021/12/07 06:12:35;;;;;;;;;;;;;;;;;;2073261;28;19917;-80
2021/12/07 06:13:38;;;;;;;;;;;;;;;;;;2081587;28;19917;-80
2021/12/07 06:14:43;;;;;;;;;;;;;;;;;;2081832;28;20328;-81
2021/12/07 06:15:45;;;;;;;;;;;;;;;;;;2081627;28;20345;-80
2021/12/07 06:16:46;;;;;;;;;;;;;;;;;;2081838;28;19970;-80
2021/12/07 06:17:46;;;;;;;;;;;;;;;;;;2081617;28;19909;-80
2021/12/07 06:18:47;;;;;;;;;;;;;;;;;;2081703;28;19983;-80
2021/12/07 06:19:47;;;;;;;;;;;;;;;;;;2081599;28;20339;-80
2021/12/07 06:20:47;;;;;;;;;;;;;;;;;;2081723;28;19908;-79
2021/12/07 06:21:48;;;;;;;;;;;;;;;;;;2081622;28;19968;-80
2021/12/07 06:22:48;;;;;;;;;;;;;;;;;;2081838;28;19974;-80
2021/12/07 06:23:48;;;;;;;;;;;;;;;;;;2081049;28;19916;-80
2021/12/07 06:24:48;;;;;;;;;;;;;;;;;;2073237;28;20274;-80
2021/12/07 06:25:49;;;;;;;;;;;;;;;;;;2072974;28;19956;-80
2021/12/07 06:26:49;;;;;;;;;;;;;;;;;;2073145;28;19909;-80
2021/12/07 06:27:50;;;;;;;;;;;;;;;;;;2064849;28;19910;-80
2021/12/07 06:28:50;;;;;;;;;;;;;;;;;;2073070;28;20358;-80
2021/12/07 06:29:50;;;;;;;;;;;;;;;;;;2072850;28;19951;-80
2021/12/07 06:30:51;;;;;;;;;;;;;;;;;;2073107;28;19975;-80
2021/12/07 06:31:53;;;;;;;;;;;;;;;;;;2072951;28;19909;-80
2021/12/07 06:32:53;;;;;;;;;;;;;;;;;;2073248;28;19987;-80
2021/12/07 06:33:53;;;;;;;;;;;;;;;;;;2081508;28;19978;-80
2021/12/07 06:34:53;;;;;;;;;;;;;;;;;;2081672;28;19956;-80
2021/12/07 06:35:59;;;;;;;;;;;;;;;;;;2072873;28;19984;-80
2021/12/07 06:36:59;;;;;;;;;;;;;;;;;;2073724;28;19920;-80
2021/12/07 06:38:02;;;;;;;;;;;;;;;;;;2081456;28;19913;-80
2021/12/07 06:39:05;;;;;;;;;;;;;;;;;;2081488;28;19909;-79
2021/12/07 06:40:07;;;;;;;;;;;;;;;;;;2073028;28;20024;-80
2021/12/07 06:41:07;;;;;;;;;;;;;;;;;;2073071;28;20360;-79
2021/12/07 06:42:08;;;;;;;;;;;;;;;;;;2081571;28;19944;-80
2021/12/07 06:43:10;;;;;;;;;;;;;;;;;;2081466;28;19909;-80
2021/12/07 06:44:13;;;;;;;;;;;;;;;;;;2081565;28;20284;-80
2021/12/07 06:45:13;;;;;;;;;;;;;;;;;;2081502;28;19909;-80
2021/12/07 06:46:13;;;;;;;;;;;;;;;;;;2081475;28;19909;-80
2021/12/07 06:47:14;;;;;;;;;;;;;;;;;;2081534;28;19916;-80
2021/12/07 06:48:14;;;;;;;;;;;;;;;;;;2081518;28;20169;-80
2021/12/07 06:49:17;;;;;;;;;;;;;;;;;;2081552;28;19944;-80
2021/12/07 06:50:17;;;;;;;;;;;;;;;;;;2081383;28;20315;-80
2021/12/07 06:51:18;;;;;;;;;;;;;;;;;;2081406;28;19909;-80
2021/12/07 06:52:18;;;;;;;;;;;;;;;;;;2081004;28;20375;-78
2021/12/07 06:53:19;;;;;;;;;;;;;;;;;;2081018;28;20363;-79
2021/12/07 06:54:19;;;;;;;;;;;;;;;;;;2072851;28;19952;-79
2021/12/07 06:55:20;;;;;;;;;;;;;;;;;;2072940;28;19945;-80
2021/12/07 06:56:20;;;;;;;;;;;;;;;;;;2081729;28;19913;-79
2021/12/07 06:57:20;;;;;;;;;;;;;;;;;;2081372;28;19994;-79
2021/12/07 06:58:21;;;;;;;;;;;;;;;;;;2081443;28;19909;-80
2021/12/07 06:59:21;;;;;;;;;;;;;;;;;;2080950;28;20342;-80
2021/12/07 07:00:22;;;;;;;;;;;;;;;;;;2081056;28;19978;-80
2021/12/07 07:01:22;;;;;;;;;;;;;;;;;;2081467;28;19909;-80
2021/12/07 07:02:22;;;;;;;;;;;;;;;;;;2081000;28;19956;-79
2021/12/07 07:03:23;;;;;;;;;;;;;;;;;;2080925;28;19913;-80
2021/12/07 07:04:23;;;;;;;;;;;;;;;;;;2081550;28;20279;-81
2021/12/07 07:05:23;;;;;;;;;;;;;;;;;;2081374;28;20176;-81
2021/12/07 07:06:24;;;;;;;;;;;;;;;;;;2081541;28;19909;-79
2021/12/07 07:07:24;;;;;;;;;;;;;;;;;;2081413;28;19978;-79
2021/12/07 07:08:24;;;;;;;;;;;;;;;;;;2081432;28;19936;-80
2021/12/07 07:09:24;;;;;;;;;;;;;;;;;;2081480;28;20292;-81
2021/12/07 07:10:25;;;;;;;;;;;;;;;;;;2081421;28;19920;-81
2021/12/07 07:11:25;;;;;;;;;;;;;;;;;;2081363;28;20370;-80
2021/12/07 07:12:25;;;;;;;;;;;;;;;;;;2081439;28;19917;-81
2021/12/07 07:13:26;;;;;;;;;;;;;;;;;;2080905;28;20367;-80
2021/12/07 07:14:26;;;;;;;;;;;;;;;;;;2081080;28;19917;-79
2021/12/07 07:15:26;;;;;;;;;;;;;;;;;;2081306;28;20375;-81
2021/12/07 07:16:27;;;;;;;;;;;;;;;;;;2081425;28;20402;-80
2021/12/07 07:17:30;;;;;;;;;;;;;;;;;;2082166;28;20352;-80
2021/12/07 07:18:30;;;;;;;;;;;;;;;;;;2083071;28;19909;-79
2021/12/07 07:19:32;;;;;;;;;;;;;;;;;;2074439;28;19910;-79
2021/12/07 07:20:33;;;;;;;;;;;;;;;;;;2074749;28;19971;-79
2021/12/07 07:21:33;;;;;;;;;;;;;;;;;;2082599;28;20429;-79
2021/12/07 07:22:33;;;;;;;;;;;;;;;;;;2082584;28;20418;-79
2021/12/07 07:23:34;;;;;;;;;;;;;;;;;;2074309;28;19971;-79
2021/12/07 07:24:34;;;;;;;;;;;;;;;;;;2074420;28;20344;-79
2021/12/07 07:25:35;;;;;;;;;;;;;;;;;;2074317;28;19964;-79
2021/12/07 07:26:35;;;;;;;;;;;;;;;;;;2074441;28;19972;-78
2021/12/07 07:27:35;;;;;;;;;;;;;;;;;;2083026;28;19994;-79
2021/12/07 07:28:36;;;;;;;;;;;;;;;;;;2083189;28;19995;-78
2021/12/07 07:29:36;;;;;;;;;;;;;;;;;;2082978;28;20406;-80
2021/12/07 07:30:36;;;;;;;;;;;;;;;;;;2082951;28;20495;-80
2021/12/07 07:31:40;;;;;;;;;;;;;;;;;;2083170;28;19947;-80
2021/12/07 07:32:40;;;;;;;;;;;;;;;;;;2082983;28;20023;-79
2021/12/07 07:33:41;;;;;;;;;;;;;;;;;;2083038;28;20348;-79
2021/12/07 07:34:43;;;;;;;;;;;;;;;;;;2082866;28;20003;-79
2021/12/07 07:35:43;;;;;;;;;;;;;;;;;;2082370;28;19923;-80
2021/12/07 07:36:44;;;;;;;;;;;;;;;;;;2082527;28;19913;-80
2021/12/07 07:37:44;;;;;;;;;;;;;;;;;;2074363;28;19920;-80
2021/12/07 07:38:45;;;;;;;;;;;;;;;;;;2058064;28;19988;-80
2021/12/07 07:39:45;;;;;;;;;;;;;;;;;;2066300;28;19910;-80
2021/12/07 07:40:46;;;;;;;;;;;;;;;;;;2082813;28;20276;-80
2021/12/07 07:41:46;;;;;;;;;;;;;;;;;;2074278;28;19913;-80
2021/12/07 07:42:47;;;;;;;;;;;;;;;;;;2066198;28;20307;-81
2021/12/07 07:43:47;;;;;;;;;;;;;;;;;;2074223;28;20000;-80
2021/12/07 07:44:47;;;;;;;;;;;;;;;;;;2082985;28;19920;-80
2021/12/07 07:45:49;;;;;;;;;;;;;;;;;;2082859;28;19966;-80
2021/12/07 07:46:50;;;;;;;;;;;;;;;;;;2074262;28;20418;-80
2021/12/07 07:47:50;;;;;;;;;;;;;;;;;;2074228;28;19910;-80
2021/12/07 07:48:50;;;;;;;;;;;;;;;;;;2082818;28;20376;-81
2021/12/07 07:49:53;;;;;;;;;;;;;;;;;;2082822;28;19948;-81
2021/12/07 07:50:54;;;;;;;;;;;;;;;;;;2082858;28;19909;-80
2021/12/07 07:51:54;;;;;;;;;;;;;;;;;;2082858;28;20363;-80
2021/12/07 07:52:54;;;;;;;;;;;;;;;;;;2082352;28;19909;-80
2021/12/07 07:53:56;;;;;;;;;;;;;;;;;;2082377;28;20000;-80
2021/12/07 07:54:57;;;;;;;;;;;;;;;;;;2082930;28;19920;-80
2021/12/07 07:55:57;;;;;;;;;;;;;;;;;;2082684;28;19905;-80
2021/12/07 07:56:57;;;;;;;;;;;;;;;;;;2082715;28;20383;-80
2021/12/07 07:57:57;;;;;;;;;;;;;;;;;;2082731;28;19920;-80
2021/12/07 07:58:58;;;;;;;;;;;;;;;;;;2082866;28;19909;-80
2021/12/07 07:59:58;;;;;;;;;;;;;;;;;;2082859;28;19913;-80
2021/12/07 08:01:00;;;;;;;;;;;;;;;;;;2082853;28;19996;-80
2021/12/07 08:02:00;;;;;;;;;;;;;;;;;;2082885;28;19909;-80
2021/12/07 08:03:00;;;;;;;;;;;;;;;;;;2082687;28;19919;-80
2021/12/07 08:04:03;;;;;;;;;;;;;;;;;;2082708;28;19909;-80
2021/12/07 08:05:04;;;;;;;;;;;;;;;;;;2082791;28;19909;-80
2021/12/07 08:06:04;;;;;;;;;;;;;;;;;;2082609;28;20354;-80
2021/12/07 08:07:07;;;;;;;;;;;;;;;;;;2082812;28;19949;-80
2021/12/07 08:08:08;;;;;;;;;;;;;;;;;;2082769;28;20260;-80
2021/12/07 08:09:08;;;;;;;;;;;;;;;;;;2082615;28;19963;-81
2021/12/07 08:10:09;;;;;;;;;;;;;;;;;;2082631;28;19909;-80
2021/12/07 08:11:09;;;;;;;;;;;;;;;;;;2082712;28;19920;-80
2021/12/07 08:12:12;;;;;;;;;;;;;;;;;;2082656;28;19909;-80
2021/12/07 08:13:14;;;;;;;;;;;;;;;;;;2082689;28;20342;-80
2021/12/07 08:14:17;;;;;;;;;;;;;;;;;;2082706;28;19908;-80
2021/12/07 08:15:18;;;;;;;;;;;;;;;;;;2082636;28;19921;-80
2021/12/07 08:16:18;;;;;;;;;;;;;;;;;;2082439;28;19955;-80
2021/12/07 08:17:18;;;;;;;;;;;;;;;;;;2082667;28;20295;-80
2021/12/07 08:18:19;;;;;;;;;;;;;;;;;;2082649;28;19951;-80
2021/12/07 08:19:19;;;;;;;;;;;;;;;;;;2082089;28;19948;-79
2021/12/07 08:20:19;;;;;;;;;;;;;;;;;;2082297;28;19913;-79
2021/12/07 08:21:20;;;;;;;;;;;;;;;;;;2073866;28;19917;-79
2021/12/07 08:22:20;;;;;;;;;;;;;;;;;;2074171;28;19953;-79
2021/12/07 08:23:20;;;;;;;;;;;;;;;;;;2082597;28;19924;-80
2021/12/07 08:24:21;;;;;;;;;;;;;;;;;;2073966;28;19965;-79
2021/12/07 08:25:21;;;;;;;;;;;;;;;;;;2074006;28;19909;-79
2021/12/07 08:26:22;;;;;;;;;;;;;;;;;;2082489;28;19913;-79
2021/12/07 08:27:23;;;;;;;;;;;;;;;;;;2082700;28;19990;-78
2021/12/07 08:28:23;;;;;;;;;;;;;;;;;;2082589;28;19909;-79
2021/12/07 08:29:23;;;;;;;;;;;;;;;;;;2081028;28;20652;-79
2021/12/07 08:30:24;;;;;;;;;;;;;;;;;;2082188;28;19921;-78
2021/12/07 08:31:25;;;;;;;;;;;;;;;;;;2082599;28;20283;-78
2021/12/07 08:32:26;;;;;;;;;;;;;;;;;;2082571;28;20383;-80
2021/12/07 08:33:26;;;;;;;;;;;;;;;;;;2082329;28;19917;-79
2021/12/07 08:34:27;;;;;;;;;;;;;;;;;;2082308;28;19983;-78
2021/12/07 08:35:27;;;;;;;;;;;;;;;;;;2073752;28;19913;-78
2021/12/07 08:36:28;;;;;;;;;;;;;;;;;;2073953;28;19920;-80
2021/12/07 08:37:28;;;;;;;;;;;;;;;;;;2082546;28;20336;-78